createdAt,value
2022-10-22T00:02:29.524Z,97499.78
2022-10-22T00:05:18.287Z,97520.38
2022-10-22T00:08:07.534Z,97521.28
2022-10-22T00:10:57.627Z,97515.06
2022-10-22T00:16:40.802Z,97529.78
2022-10-22T00:19:29.557Z,97510.94
2022-10-22T00:22:18.284Z,97531.41
2022-10-22T00:25:07.445Z,97535.63
2022-10-22T00:27:57.528Z,97523.75
2022-10-22T00:30:46.196Z,97409.22
2022-10-22T00:33:35.017Z,97550.50
2022-10-22T00:36:23.613Z,97548.88
2022-10-22T00:39:13.217Z,97536.66
2022-10-22T00:42:01.853Z,97528.00
2022-10-22T00:45:27.329Z,97525.88
2022-10-22T00:48:20.054Z,97514.06
2022-10-22T00:51:10.526Z,97525.41
2022-10-22T00:54:03.078Z,97522.81
2022-10-22T00:56:51.764Z,97518.41
2022-10-22T00:59:40.839Z,97470.16
2022-10-22T01:02:30.929Z,97513.09
2022-10-22T01:05:20.041Z,97514.81
2022-10-22T01:08:16.179Z,97507.91
2022-10-22T01:11:14.788Z,97493.16
2022-10-22T01:14:14.275Z,97509.56
2022-10-22T01:17:08.855Z,97508.00
2022-10-22T01:20:10.494Z,97480.56
2022-10-22T01:23:12.374Z,97494.22
2022-10-22T01:26:07.874Z,97489.81
2022-10-22T01:29:03.905Z,97341.66
2022-10-22T01:31:58.136Z,97476.78
2022-10-22T01:34:51.947Z,97440.84
2022-10-22T01:37:45.409Z,97457.16
2022-10-22T01:40:35.333Z,97469.81
2022-10-22T01:43:24.235Z,97463.88
2022-10-22T01:46:15.393Z,97446.47
2022-10-22T01:49:17.175Z,97446.75
2022-10-22T01:52:16.897Z,97439.06
2022-10-22T01:55:18.094Z,97435.34
2022-10-22T01:58:20.997Z,97433.91
2022-10-22T02:01:19.617Z,97426.19
2022-10-22T02:04:15.269Z,97412.84
2022-10-22T02:07:07.988Z,97340.59
2022-10-22T02:09:58.694Z,97416.03
2022-10-22T02:12:51.837Z,97417.19
2022-10-22T02:15:42.443Z,97407.94
2022-10-22T02:18:37.500Z,97425.94
2022-10-22T02:21:29.027Z,97420.78
2022-10-22T02:24:18.888Z,97425.13
2022-10-22T02:27:14.011Z,97416.34
2022-10-22T02:30:07.607Z,97416.34
2022-10-22T02:33:01.710Z,97393.75
2022-10-22T02:35:53.755Z,97422.38
2022-10-22T02:38:43.361Z,97414.66
2022-10-22T02:41:32.574Z,97336.59
2022-10-22T02:44:23.528Z,97367.06
2022-10-22T02:47:12.112Z,97401.69
2022-10-22T02:50:00.726Z,97380.88
2022-10-22T02:52:50.716Z,97401.22
2022-10-22T02:55:39.353Z,97375.69
2022-10-22T02:58:27.911Z,97409.00
2022-10-22T03:01:16.498Z,97372.28
2022-10-22T03:04:05.334Z,97391.78
2022-10-22T03:06:53.945Z,97386.53
2022-10-22T03:09:43.954Z,97396.63
2022-10-22T03:12:32.687Z,97400.22
2022-10-22T03:15:21.301Z,97379.31
2022-10-22T03:18:09.937Z,97362.28
2022-10-22T03:21:09.206Z,97379.34
2022-10-22T03:23:58.215Z,97320.25
2022-10-22T03:26:51.913Z,97378.78
2022-10-22T03:29:41.505Z,97363.22
2022-10-22T03:32:30.118Z,97377.63
2022-10-22T03:35:18.696Z,97382.13
2022-10-22T03:38:07.414Z,97390.72
2022-10-22T03:40:56.083Z,97385.69
2022-10-22T03:43:50.101Z,97377.81
2022-10-22T03:46:38.720Z,97374.81
2022-10-22T03:49:27.319Z,97390.59
2022-10-22T03:52:16.872Z,97358.59
2022-10-22T03:55:06.365Z,97380.09
2022-10-22T03:57:54.992Z,97388.75
2022-10-22T04:00:44.991Z,97379.19
2022-10-22T04:03:33.704Z,97388.66
2022-10-22T04:06:22.319Z,97397.56
2022-10-22T04:09:11.026Z,97396.13
2022-10-22T04:11:59.917Z,97389.28
2022-10-22T04:14:49.357Z,97387.53
2022-10-22T04:17:39.690Z,97380.31
2022-10-22T04:20:28.605Z,97399.91
2022-10-22T04:23:17.173Z,97390.84
2022-10-22T04:26:08.543Z,97409.88
2022-10-22T04:28:57.127Z,97389.19
2022-10-22T04:31:45.773Z,97400.38
2022-10-22T04:34:35.799Z,97293.50
2022-10-22T04:37:24.413Z,97368.19
2022-10-22T04:40:14.080Z,97393.22
2022-10-22T04:43:02.647Z,97398.41
2022-10-22T04:45:51.336Z,97385.94
2022-10-22T04:48:41.653Z,97401.63
2022-10-22T04:51:32.091Z,97408.81
2022-10-22T04:54:20.759Z,97399.38
2022-10-22T04:57:09.379Z,97407.78
2022-10-22T04:59:57.998Z,97363.88
2022-10-22T05:02:50.899Z,97339.22
2022-10-22T05:05:39.483Z,97368.25
2022-10-22T05:08:29.438Z,97373.31
2022-10-22T05:11:21.538Z,97366.31
2022-10-22T05:14:11.753Z,97368.09
2022-10-22T05:17:00.365Z,97383.72
2022-10-22T05:19:49.070Z,97354.09
2022-10-22T05:22:37.733Z,97380.75
2022-10-22T05:25:27.804Z,97372.09
2022-10-22T05:28:16.457Z,97364.50
2022-10-22T05:31:06.327Z,97369.03
2022-10-22T05:33:54.917Z,97369.97
2022-10-22T05:36:43.793Z,97351.78
2022-10-22T05:39:32.450Z,97376.22
2022-10-22T05:42:22.500Z,97380.69
2022-10-22T05:45:11.864Z,97387.69
2022-10-22T05:48:00.493Z,97385.19
2022-10-22T05:50:50.936Z,97394.75
2022-10-22T05:53:42.605Z,97411.44
2022-10-22T05:56:32.874Z,97399.81
2022-10-22T05:59:22.901Z,97403.31
2022-10-22T06:02:11.720Z,97396.31
2022-10-22T06:05:00.343Z,97420.41
2022-10-22T06:07:49.086Z,97422.94
2022-10-22T06:10:38.078Z,97406.03
2022-10-22T06:13:27.023Z,97401.53
2022-10-22T06:16:17.047Z,97405.75
2022-10-22T06:19:05.907Z,97407.84
2022-10-22T06:21:55.137Z,97404.22
2022-10-22T06:24:45.119Z,97395.56
2022-10-22T06:27:34.038Z,97368.31
2022-10-22T06:30:22.740Z,97395.81
2022-10-22T06:33:12.815Z,97374.28
2022-10-22T06:36:07.737Z,97414.63
2022-10-22T06:38:57.501Z,97418.56
2022-10-22T06:41:47.235Z,97427.97
2022-10-22T06:44:36.123Z,97431.88
2022-10-22T06:47:24.764Z,97435.41
2022-10-22T06:50:14.778Z,97438.88
2022-10-22T06:53:03.446Z,97458.47
2022-10-22T06:55:52.033Z,97458.28
2022-10-22T06:58:40.981Z,97419.69
2022-10-22T07:01:31.927Z,97344.41
2022-10-22T07:04:20.598Z,97414.25
2022-10-22T07:07:10.645Z,97449.41
2022-10-22T07:09:59.452Z,97463.84
2022-10-22T07:12:48.189Z,97468.84
2022-10-22T07:15:36.940Z,97467.72
2022-10-22T07:18:25.754Z,97478.88
2022-10-22T07:21:15.255Z,97457.00
2022-10-22T07:24:05.849Z,97481.97
2022-10-22T07:26:54.578Z,97486.69
2022-10-22T07:29:43.238Z,97429.78
2022-10-22T07:32:31.834Z,97445.31
2022-10-22T07:35:20.417Z,97483.06
2022-10-22T07:38:10.153Z,97479.41
2022-10-22T07:41:00.547Z,97487.06
2022-10-22T07:43:49.149Z,97487.91
2022-10-22T07:46:37.704Z,97493.94
2022-10-22T07:49:26.685Z,97454.25
2022-10-22T07:52:15.357Z,97482.66
2022-10-22T07:55:04.034Z,97517.09
2022-10-22T07:57:54.218Z,97523.19
2022-10-22T08:00:42.899Z,97535.25
2022-10-22T08:03:31.675Z,97505.88
2022-10-22T08:06:20.399Z,97558.09
2022-10-22T08:09:09.078Z,97552.69
2022-10-22T08:11:57.799Z,97542.59
2022-10-22T08:14:47.878Z,97544.13
2022-10-22T08:17:36.575Z,97577.25
2022-10-22T08:20:25.225Z,97579.88
2022-10-22T08:23:13.849Z,97579.28
2022-10-22T08:26:03.259Z,97572.03
2022-10-22T08:28:51.938Z,97583.78
2022-10-22T08:31:42.091Z,97582.19
2022-10-22T08:34:31.072Z,97581.75
2022-10-22T08:37:19.693Z,97576.03
2022-10-22T08:40:09.196Z,97576.78
2022-10-22T08:43:33.982Z,97565.97
2022-10-22T08:46:35.378Z,97580.19
2022-10-22T08:49:29.830Z,97564.00
2022-10-22T08:52:20.416Z,97574.63
2022-10-22T08:55:15.662Z,97465.63
2022-10-22T08:58:17.834Z,97583.63
2022-10-22T09:01:11.923Z,97551.50
2022-10-22T09:04:06.708Z,97589.69
2022-10-22T09:07:00.917Z,97569.78
2022-10-22T09:09:53.205Z,97590.34
2022-10-22T09:12:42.080Z,97586.75
2022-10-22T09:15:31.705Z,97563.09
2022-10-22T09:18:32.281Z,97595.63
2022-10-22T09:21:30.614Z,97597.13
2022-10-22T09:24:33.399Z,97589.81
2022-10-22T09:27:28.463Z,97572.84
2022-10-22T09:30:19.010Z,97500.13
2022-10-22T09:33:14.114Z,97587.19
2022-10-22T09:36:05.862Z,97597.81
2022-10-22T09:38:55.086Z,97616.63
2022-10-22T09:41:45.176Z,97612.00
2022-10-22T09:44:35.293Z,97610.06
2022-10-22T09:47:43.363Z,97577.75
2022-10-22T09:50:43.984Z,97610.28
2022-10-22T09:53:38.385Z,97608.25
2022-10-22T09:56:29.029Z,97517.75
2022-10-22T09:59:21.161Z,97502.88
2022-10-22T10:02:20.166Z,97611.31
2022-10-22T10:05:21.456Z,97603.53
2022-10-22T10:08:18.889Z,97597.34
2022-10-22T10:11:15.535Z,97604.75
2022-10-22T10:14:12.758Z,97601.16
2022-10-22T10:17:09.578Z,97596.16
2022-10-22T10:20:10.648Z,97581.22
2022-10-22T10:23:09.832Z,97608.53
2022-10-22T10:26:05.018Z,97609.28
2022-10-22T10:29:10.408Z,97619.66
2022-10-22T10:32:22.319Z,97626.38
2022-10-22T10:35:24.104Z,97620.78
2022-10-22T10:38:37.758Z,97630.94
2022-10-22T10:41:38.993Z,97642.22
2022-10-22T10:44:48.053Z,97624.69
2022-10-22T10:48:05.489Z,97640.97
2022-10-22T10:51:04.626Z,97648.88
2022-10-22T10:54:06.455Z,97642.78
2022-10-22T10:56:59.053Z,97637.75
2022-10-22T11:00:01.495Z,97630.78
2022-10-22T11:03:19.514Z,97649.69
2022-10-22T11:06:12.266Z,97636.66
2022-10-22T11:09:04.605Z,97648.88
2022-10-22T11:11:57.983Z,97653.44
2022-10-22T11:14:58.748Z,97653.16
2022-10-22T11:17:49.931Z,97647.56
2022-10-22T11:20:50.407Z,97649.53
2022-10-22T11:23:45.491Z,97627.69
2022-10-22T11:26:43.267Z,97639.34
2022-10-22T11:29:36.654Z,97645.25
2022-10-22T11:32:27.647Z,97651.19
2022-10-22T11:35:20.212Z,97632.13
2022-10-22T11:38:17.679Z,97639.28
2022-10-22T11:41:11.129Z,97641.84
2022-10-22T11:44:09.363Z,97647.19
2022-10-22T11:47:00.323Z,97642.56
2022-10-22T11:49:58.902Z,97646.84
2022-10-22T11:53:03.252Z,97632.91
2022-10-22T11:55:55.787Z,97642.53
2022-10-22T11:58:50.774Z,97645.44
2022-10-22T12:01:44.168Z,97600.00
2022-10-22T12:04:43.275Z,97626.19
2022-10-22T12:07:35.063Z,97642.59
2022-10-22T12:10:28.173Z,97642.47
2022-10-22T12:13:23.774Z,97640.88
2022-10-22T12:16:14.863Z,97647.66
2022-10-22T12:19:07.173Z,97608.53
2022-10-22T12:22:00.088Z,97606.13
2022-10-22T12:24:50.724Z,97652.06
2022-10-22T12:27:41.026Z,97662.91
2022-10-22T12:30:34.796Z,97667.69
2022-10-22T12:33:26.544Z,97576.44
2022-10-22T12:36:19.932Z,97683.00
2022-10-22T12:39:14.026Z,97678.56
2022-10-22T12:42:02.637Z,97697.75
2022-10-22T12:44:57.023Z,97687.28
2022-10-22T12:47:49.293Z,97673.03
2022-10-22T12:50:42.285Z,97682.06
2022-10-22T12:53:33.353Z,97680.13
2022-10-22T12:56:25.423Z,97693.66
2022-10-22T12:59:19.649Z,97589.34
2022-10-22T13:02:19.043Z,97683.38
2022-10-22T13:05:34.300Z,97682.59
2022-10-22T13:11:14.143Z,97679.81
2022-10-22T13:14:04.021Z,97638.97
2022-10-22T13:17:11.375Z,97682.59
2022-10-22T13:20:05.473Z,97669.78
2022-10-22T13:23:01.373Z,97684.22
2022-10-22T13:26:00.420Z,97633.88
2022-10-22T13:28:53.517Z,97689.78
2022-10-22T13:31:48.688Z,97681.94
2022-10-22T13:34:37.310Z,97678.63
2022-10-22T13:37:26.313Z,97673.34
2022-10-22T13:40:17.096Z,97692.75
2022-10-22T13:43:05.739Z,97683.25
2022-10-22T13:45:57.174Z,97676.91
2022-10-22T13:48:47.486Z,97687.03
2022-10-22T13:51:36.734Z,97690.84
2022-10-22T13:54:26.717Z,97691.69
2022-10-22T13:57:16.828Z,97701.31
2022-10-22T14:00:06.233Z,97710.19
2022-10-22T14:02:58.270Z,97715.69
2022-10-22T14:05:47.989Z,97716.63
2022-10-22T14:08:36.697Z,97720.25
2022-10-22T14:11:27.336Z,97726.38
2022-10-22T14:14:18.969Z,97730.88
2022-10-22T14:17:10.433Z,97736.25
2022-10-22T14:19:59.444Z,97715.75
2022-10-22T14:22:48.574Z,97747.66
2022-10-22T14:25:37.154Z,97735.78
2022-10-22T14:28:26.348Z,97732.34
2022-10-22T14:31:17.193Z,97749.63
2022-10-22T14:34:06.247Z,97752.16
2022-10-22T14:36:55.283Z,97740.94
2022-10-22T14:39:44.289Z,97742.78
2022-10-22T14:42:34.209Z,97747.97
2022-10-22T14:45:25.347Z,97655.28
2022-10-22T14:48:16.270Z,97759.13
2022-10-22T14:51:05.818Z,97759.38
2022-10-22T14:53:54.537Z,97748.53
2022-10-22T14:56:43.150Z,97759.28
2022-10-22T14:59:32.070Z,97771.53
2022-10-22T15:02:20.729Z,97768.75
2022-10-22T15:05:11.485Z,97761.41
2022-10-22T15:08:00.481Z,97777.97
2022-10-22T15:10:58.320Z,97762.88
2022-10-22T15:13:46.920Z,97770.16
2022-10-22T15:16:35.923Z,97777.97
2022-10-22T15:19:24.979Z,97773.72
2022-10-22T15:22:15.579Z,97653.97
2022-10-22T15:25:09.734Z,97773.06
2022-10-22T15:28:02.066Z,97765.44
2022-10-22T15:30:56.900Z,97746.84
2022-10-22T15:33:45.544Z,97757.25
2022-10-22T15:36:34.454Z,97755.38
2022-10-22T15:39:25.648Z,97754.34
2022-10-22T15:42:15.428Z,97754.53
2022-10-22T15:45:04.549Z,97721.94
2022-10-22T15:47:53.785Z,97745.06
2022-10-22T15:50:42.524Z,97757.16
2022-10-22T15:53:31.470Z,97752.09
2022-10-22T15:56:22.395Z,97776.28
2022-10-22T15:59:14.235Z,97793.09
2022-10-22T16:02:03.123Z,97792.41
2022-10-22T16:04:51.983Z,97784.22
2022-10-22T16:07:40.743Z,97783.63
2022-10-22T16:10:29.913Z,97817.63
2022-10-22T16:13:21.307Z,97820.47
2022-10-22T16:16:10.593Z,97830.41
2022-10-22T16:18:59.433Z,97823.75
2022-10-22T16:21:50.338Z,97844.66
2022-10-22T16:24:41.429Z,97854.19
2022-10-22T16:27:30.739Z,97801.69
2022-10-22T16:30:21.204Z,97862.84
2022-10-22T16:33:11.403Z,97855.25
2022-10-22T16:36:00.339Z,97866.69
2022-10-22T16:38:50.174Z,97873.03
2022-10-22T16:41:39.251Z,97865.78
2022-10-22T16:44:28.819Z,97874.41
2022-10-22T16:47:19.363Z,97879.06
2022-10-22T16:50:09.042Z,97883.56
2022-10-22T16:52:58.778Z,97873.56
2022-10-22T16:55:48.234Z,97893.22
2022-10-22T16:58:37.655Z,97898.50
2022-10-22T17:01:30.497Z,97907.44
2022-10-22T17:04:22.910Z,97912.09
2022-10-22T17:07:12.023Z,97906.97
2022-10-22T17:10:01.814Z,97874.69
2022-10-22T17:12:51.664Z,97904.28
2022-10-22T17:15:40.787Z,97904.50
2022-10-22T17:18:30.801Z,97894.16
2022-10-22T17:21:22.755Z,97908.09
2022-10-22T17:24:23.440Z,97906.44
2022-10-22T17:27:12.945Z,97921.69
2022-10-22T17:30:05.354Z,97917.53
2022-10-22T17:32:55.633Z,97903.97
2022-10-22T17:35:45.580Z,97918.84
2022-10-22T17:38:37.739Z,97923.34
2022-10-22T17:41:30.638Z,97923.22
2022-10-22T17:44:20.316Z,97925.00
2022-10-22T17:47:10.484Z,97936.34
2022-10-22T17:50:00.496Z,97944.25
2022-10-22T17:52:50.878Z,97952.44
2022-10-22T17:55:42.069Z,97939.69
2022-10-22T17:58:32.475Z,97958.03
2022-10-22T18:01:24.382Z,97925.72
2022-10-22T18:04:17.193Z,97938.31
2022-10-22T18:07:06.425Z,97944.56
2022-10-22T18:09:57.807Z,97953.19
2022-10-22T18:12:49.478Z,97956.66
2022-10-22T18:15:39.552Z,97960.03
2022-10-22T18:18:28.948Z,97963.00
2022-10-22T18:21:19.334Z,97958.25
2022-10-22T18:24:09.674Z,97964.28
2022-10-22T18:26:59.039Z,97958.84
2022-10-22T18:29:53.604Z,97897.75
2022-10-22T18:32:43.234Z,97959.13
2022-10-22T18:35:34.695Z,97962.81
2022-10-22T18:38:24.333Z,97969.91
2022-10-22T18:41:16.173Z,97995.03
2022-10-22T18:44:07.604Z,97966.50
2022-10-22T18:46:59.493Z,97989.16
2022-10-22T18:49:49.553Z,97990.97
2022-10-22T18:52:40.705Z,97981.78
2022-10-22T18:55:30.946Z,97994.88
2022-10-22T18:58:21.091Z,97997.31
2022-10-22T19:01:12.241Z,97991.44
2022-10-22T19:04:03.714Z,97982.19
2022-10-22T19:06:53.369Z,97984.19
2022-10-22T19:09:44.404Z,97987.81
2022-10-22T19:12:33.706Z,97981.06
2022-10-22T19:15:23.141Z,98015.28
2022-10-22T19:18:15.598Z,97978.31
2022-10-22T19:21:07.499Z,98023.25
2022-10-22T19:23:57.753Z,98025.06
2022-10-22T19:26:48.843Z,98027.59
2022-10-22T19:29:38.595Z,98034.25
2022-10-22T19:32:30.862Z,98027.25
2022-10-22T19:35:20.452Z,98006.84
2022-10-22T19:38:10.905Z,97986.53
2022-10-22T19:41:00.628Z,98020.31
2022-10-22T19:43:52.418Z,98030.06
2022-10-22T19:46:41.894Z,98038.88
2022-10-22T19:49:31.524Z,98028.50
2022-10-22T19:52:21.185Z,98031.03
2022-10-22T19:55:12.901Z,98036.13
2022-10-22T19:58:02.275Z,97981.78
2022-10-22T20:00:51.573Z,97981.03
2022-10-22T20:03:41.064Z,98056.22
2022-10-22T20:06:30.423Z,98047.38
2022-10-22T20:09:19.188Z,97849.53
2022-10-22T20:12:10.009Z,98053.91
2022-10-22T20:14:58.810Z,98044.41
2022-10-22T20:17:47.554Z,98037.66
2022-10-22T20:20:39.998Z,98043.16
2022-10-22T20:23:29.639Z,98052.69
2022-10-22T20:26:18.595Z,98050.94
2022-10-22T20:29:09.789Z,98053.59
2022-10-22T20:31:59.637Z,98058.06
2022-10-22T20:34:48.574Z,98065.91
2022-10-22T20:37:37.764Z,98073.94
2022-10-22T20:40:27.564Z,98079.22
2022-10-22T20:43:17.215Z,98073.94
2022-10-22T20:46:08.655Z,98085.16
2022-10-22T20:49:01.734Z,98015.25
2022-10-22T20:51:50.838Z,98085.22
2022-10-22T20:54:42.980Z,98049.91
2022-10-22T20:57:33.357Z,98061.19
2022-10-22T21:00:22.309Z,98093.19
2022-10-22T21:03:13.055Z,98090.56
2022-10-22T21:06:01.614Z,98090.59
2022-10-22T21:08:50.761Z,98096.69
2022-10-22T21:11:40.666Z,98095.88
2022-10-22T21:14:29.949Z,98073.63
2022-10-22T21:17:18.578Z,98080.47
2022-10-22T21:22:58.053Z,98095.56
2022-10-22T21:25:55.019Z,98100.16
2022-10-22T21:28:43.759Z,98080.25
2022-10-22T21:31:32.427Z,98097.56
2022-10-22T21:34:21.480Z,98083.66
2022-10-22T21:37:11.567Z,98100.19
2022-10-22T21:40:00.833Z,98108.03
2022-10-22T21:42:51.425Z,98118.44
2022-10-22T21:45:40.118Z,98121.34
2022-10-22T21:48:28.713Z,98104.22
2022-10-22T21:51:20.167Z,97954.81
2022-10-22T21:54:12.449Z,98123.94
2022-10-22T21:57:01.023Z,98096.28
2022-10-22T21:59:49.604Z,98123.97
2022-10-22T22:02:38.157Z,98129.25
2022-10-22T22:05:27.458Z,98122.22
2022-10-22T22:08:16.186Z,98122.13
2022-10-22T22:11:08.710Z,98123.00
2022-10-22T22:13:58.891Z,98116.88
2022-10-22T22:16:47.550Z,98111.59
2022-10-22T22:19:36.129Z,98114.31
2022-10-22T22:22:25.077Z,98109.09
2022-10-22T22:25:13.680Z,98113.59
2022-10-22T22:28:03.747Z,98111.81
2022-10-22T22:30:52.444Z,98118.13
2022-10-22T22:33:41.265Z,98116.28
2022-10-22T22:36:33.593Z,98116.31
2022-10-22T22:39:23.902Z,98106.84
2022-10-22T22:42:12.519Z,98114.53
2022-10-22T22:45:02.852Z,98124.50
2022-10-22T22:47:51.484Z,98114.41
2022-10-22T22:50:40.009Z,98109.97
2022-10-22T22:53:29.204Z,98097.97
2022-10-22T22:56:19.848Z,98046.06
2022-10-22T22:59:08.559Z,98112.59
2022-10-22T23:01:58.822Z,98104.03
2022-10-22T23:04:47.746Z,98104.06
2022-10-22T23:07:36.520Z,98102.41
2022-10-22T23:10:25.122Z,98091.16
2022-10-22T23:13:13.715Z,98079.16
2022-10-22T23:16:07.068Z,98099.84
2022-10-22T23:18:58.180Z,98098.16
2022-10-22T23:21:48.581Z,98105.06
2022-10-22T23:24:37.888Z,98102.50
2022-10-22T23:27:26.498Z,98098.94
2022-10-22T23:30:15.335Z,98088.53
2022-10-22T23:33:03.918Z,98087.59
2022-10-22T23:35:53.984Z,98053.88
2022-10-22T23:38:43.565Z,97983.19
2022-10-22T23:41:32.186Z,98087.72
2022-10-22T23:44:21.299Z,98085.31
2022-10-22T23:47:09.944Z,98098.53
2022-10-22T23:49:58.645Z,98102.13
2022-10-22T23:52:48.764Z,98103.03
2022-10-22T23:55:38.444Z,98054.13
2022-10-22T23:58:27.123Z,98104.97
